sensor_id;sensor_type;location;lat;lon;timestamp;temperature;humidity
25352;DHT22;13304;48.464;8.712;2024-03-29T00:00:45;7.80;71.50
25352;DHT22;13304;48.464;8.712;2024-03-29T00:03:13;7.80;72.30
25352;DHT22;13304;48.464;8.712;2024-03-29T00:05:39;7.70;71.30
25352;DHT22;13304;48.464;8.712;2024-03-29T00:08:04;7.70;71.30
25352;DHT22;13304;48.464;8.712;2024-03-29T00:10:30;7.70;71.40
25352;DHT22;13304;48.464;8.712;2024-03-29T00:12:56;7.70;71.50
25352;DHT22;13304;48.464;8.712;2024-03-29T00:15:21;7.60;71.40
25352;DHT22;13304;48.464;8.712;2024-03-29T00:17:47;7.60;71.40
25352;DHT22;13304;48.464;8.712;2024-03-29T00:20:13;7.60;71.40
25352;DHT22;13304;48.464;8.712;2024-03-29T00:22:38;7.60;71.40
25352;DHT22;13304;48.464;8.712;2024-03-29T00:25:04;7.50;71.50
25352;DHT22;13304;48.464;8.712;2024-03-29T00:27:29;7.50;71.50
25352;DHT22;13304;48.464;8.712;2024-03-29T00:29:56;7.50;71.40
25352;DHT22;13304;48.464;8.712;2024-03-29T00:32:21;7.50;71.50
25352;DHT22;13304;48.464;8.712;2024-03-29T00:34:51;7.50;71.40
25352;DHT22;13304;48.464;8.712;2024-03-29T00:37:16;7.50;71.50
25352;DHT22;13304;48.464;8.712;2024-03-29T00:39:42;7.40;71.40
25352;DHT22;13304;48.464;8.712;2024-03-29T00:42:08;7.40;71.50
25352;DHT22;13304;48.464;8.712;2024-03-29T00:44:41;7.40;71.60
25352;DHT22;13304;48.464;8.712;2024-03-29T00:47:07;7.40;71.70
25352;DHT22;13304;48.464;8.712;2024-03-29T00:49:33;7.40;71.90
25352;DHT22;13304;48.464;8.712;2024-03-29T00:51:58;7.30;71.70
25352;DHT22;13304;48.464;8.712;2024-03-29T00:54:24;7.30;72.60
25352;DHT22;13304;48.464;8.712;2024-03-29T00:56:50;7.30;71.80
25352;DHT22;13304;48.464;8.712;2024-03-29T00:59:15;7.30;71.80
25352;DHT22;13304;48.464;8.712;2024-03-29T01:01:41;7.30;71.70
25352;DHT22;13304;48.464;8.712;2024-03-29T01:04:07;7.30;71.70
25352;DHT22;13304;48.464;8.712;2024-03-29T01:06:32;7.30;71.80
25352;DHT22;13304;48.464;8.712;2024-03-29T01:08:58;7.20;71.70
25352;DHT22;13304;48.464;8.712;2024-03-29T01:11:26;7.20;71.70
25352;DHT22;13304;48.464;8.712;2024-03-29T01:13:52;7.20;71.80
25352;DHT22;13304;48.464;8.712;2024-03-29T01:16:18;7.20;71.80
25352;DHT22;13304;48.464;8.712;2024-03-29T01:18:43;7.20;71.90
25352;DHT22;13304;48.464;8.712;2024-03-29T01:21:09;7.20;72.00
25352;DHT22;13304;48.464;8.712;2024-03-29T01:23:35;7.20;72.10
25352;DHT22;13304;48.464;8.712;2024-03-29T01:26:00;7.20;72.20
25352;DHT22;13304;48.464;8.712;2024-03-29T01:28:26;7.20;72.30
25352;DHT22;13304;48.464;8.712;2024-03-29T01:30:54;7.20;72.40
25352;DHT22;13304;48.464;8.712;2024-03-29T01:33:20;7.20;72.50
25352;DHT22;13304;48.464;8.712;2024-03-29T01:35:46;7.20;72.60
25352;DHT22;13304;48.464;8.712;2024-03-29T01:38:12;7.20;72.60
25352;DHT22;13304;48.464;8.712;2024-03-29T01:40:37;7.30;72.70
25352;DHT22;13304;48.464;8.712;2024-03-29T01:43:03;7.30;72.80
25352;DHT22;13304;48.464;8.712;2024-03-29T01:45:29;7.30;72.80
25352;DHT22;13304;48.464;8.712;2024-03-29T01:47:55;7.30;72.90
25352;DHT22;13304;48.464;8.712;2024-03-29T01:50:20;7.30;73.00
25352;DHT22;13304;48.464;8.712;2024-03-29T01:52:46;7.30;73.30
25352;DHT22;13304;48.464;8.712;2024-03-29T01:55:12;7.40;73.40
25352;DHT22;13304;48.464;8.712;2024-03-29T01:57:38;7.40;73.40
25352;DHT22;13304;48.464;8.712;2024-03-29T02:00:04;7.40;73.30
25352;DHT22;13304;48.464;8.712;2024-03-29T02:02:32;7.30;73.20
25352;DHT22;13304;48.464;8.712;2024-03-29T02:04:57;7.40;73.10
25352;DHT22;13304;48.464;8.712;2024-03-29T02:07:24;7.30;73.10
25352;DHT22;13304;48.464;8.712;2024-03-29T02:09:50;7.40;73.30
25352;DHT22;13304;48.464;8.712;2024-03-29T02:12:15;7.40;73.40
25352;DHT22;13304;48.464;8.712;2024-03-29T02:14:41;7.40;73.50
25352;DHT22;13304;48.464;8.712;2024-03-29T02:17:08;7.40;73.50
25352;DHT22;13304;48.464;8.712;2024-03-29T02:19:33;7.40;73.60
25352;DHT22;13304;48.464;8.712;2024-03-29T02:21:59;7.40;73.60
25352;DHT22;13304;48.464;8.712;2024-03-29T02:24:26;7.50;73.60
25352;DHT22;13304;48.464;8.712;2024-03-29T02:26:52;7.50;74.20
25352;DHT22;13304;48.464;8.712;2024-03-29T02:29:19;7.50;74.10
25352;DHT22;13304;48.464;8.712;2024-03-29T02:31:44;7.50;74.00
25352;DHT22;13304;48.464;8.712;2024-03-29T02:34:10;7.50;74.20
25352;DHT22;13304;48.464;8.712;2024-03-29T02:36:35;7.50;74.00
25352;DHT22;13304;48.464;8.712;2024-03-29T02:39:01;7.60;73.70
25352;DHT22;13304;48.464;8.712;2024-03-29T02:41:27;7.50;73.50
25352;DHT22;13304;48.464;8.712;2024-03-29T02:43:55;7.50;73.70
25352;DHT22;13304;48.464;8.712;2024-03-29T02:46:21;7.50;73.50
25352;DHT22;13304;48.464;8.712;2024-03-29T02:48:46;7.50;73.40
25352;DHT22;13304;48.464;8.712;2024-03-29T02:51:12;7.50;73.50
25352;DHT22;13304;48.464;8.712;2024-03-29T02:53:37;7.40;73.80
25352;DHT22;13304;48.464;8.712;2024-03-29T02:56:04;7.40;74.00
25352;DHT22;13304;48.464;8.712;2024-03-29T02:58:29;7.40;74.40
25352;DHT22;13304;48.464;8.712;2024-03-29T03:00:55;7.50;74.20
25352;DHT22;13304;48.464;8.712;2024-03-29T03:03:23;7.50;74.20
25352;DHT22;13304;48.464;8.712;2024-03-29T03:05:49;7.50;74.20
25352;DHT22;13304;48.464;8.712;2024-03-29T03:08:15;7.50;74.20
25352;DHT22;13304;48.464;8.712;2024-03-29T03:10:59;7.50;74.80
25352;DHT22;13304;48.464;8.712;2024-03-29T03:13:27;7.50;74.50
25352;DHT22;13304;48.464;8.712;2024-03-29T03:15:53;7.60;75.00
25352;DHT22;13304;48.464;8.712;2024-03-29T03:18:19;7.60;74.80
25352;DHT22;13304;48.464;8.712;2024-03-29T03:20:54;7.60;74.60
25352;DHT22;13304;48.464;8.712;2024-03-29T03:23:20;7.60;74.70
25352;DHT22;13304;48.464;8.712;2024-03-29T03:25:55;7.60;75.20
25352;DHT22;13304;48.464;8.712;2024-03-29T03:28:21;7.70;75.00
25352;DHT22;13304;48.464;8.712;2024-03-29T03:30:47;7.70;75.00
25352;DHT22;13304;48.464;8.712;2024-03-29T03:33:13;7.70;75.00
25352;DHT22;13304;48.464;8.712;2024-03-29T03:35:38;7.70;75.80
25352;DHT22;13304;48.464;8.712;2024-03-29T03:38:04;7.70;75.20
25352;DHT22;13304;48.464;8.712;2024-03-29T03:40:29;7.80;75.20
25352;DHT22;13304;48.464;8.712;2024-03-29T03:42:55;7.70;77.00
25352;DHT22;13304;48.464;8.712;2024-03-29T03:45:21;7.80;76.20
25352;DHT22;13304;48.464;8.712;2024-03-29T03:47:46;7.80;76.10
25352;DHT22;13304;48.464;8.712;2024-03-29T03:50:12;7.80;75.90
25352;DHT22;13304;48.464;8.712;2024-03-29T03:52:37;7.90;76.30
25352;DHT22;13304;48.464;8.712;2024-03-29T03:55:03;7.90;75.80
25352;DHT22;13304;48.464;8.712;2024-03-29T03:57:28;7.90;75.60
25352;DHT22;13304;48.464;8.712;2024-03-29T03:59:54;7.90;75.40
25352;DHT22;13304;48.464;8.712;2024-03-29T04:02:19;8.00;75.50
25352;DHT22;13304;48.464;8.712;2024-03-29T04:04:48;8.00;75.50
25352;DHT22;13304;48.464;8.712;2024-03-29T04:07:13;8.00;75.40
25352;DHT22;13304;48.464;8.712;2024-03-29T04:09:39;8.00;75.40
25352;DHT22;13304;48.464;8.712;2024-03-29T04:12:04;8.00;75.40
25352;DHT22;13304;48.464;8.712;2024-03-29T04:14:30;8.10;75.50
25352;DHT22;13304;48.464;8.712;2024-03-29T04:16:55;8.00;75.60
25352;DHT22;13304;48.464;8.712;2024-03-29T04:19:21;8.10;75.70
25352;DHT22;13304;48.464;8.712;2024-03-29T04:21:46;8.10;75.60
25352;DHT22;13304;48.464;8.712;2024-03-29T04:24:12;8.10;75.60
25352;DHT22;13304;48.464;8.712;2024-03-29T04:26:37;8.10;75.60
25352;DHT22;13304;48.464;8.712;2024-03-29T04:29:03;8.10;75.50
25352;DHT22;13304;48.464;8.712;2024-03-29T04:31:32;8.10;75.60
25352;DHT22;13304;48.464;8.712;2024-03-29T04:33:58;8.10;75.60
25352;DHT22;13304;48.464;8.712;2024-03-29T04:36:23;8.20;75.70
25352;DHT22;13304;48.464;8.712;2024-03-29T04:38:49;8.20;75.70
25352;DHT22;13304;48.464;8.712;2024-03-29T04:41:15;8.20;75.70
25352;DHT22;13304;48.464;8.712;2024-03-29T04:43:41;8.20;75.70
25352;DHT22;13304;48.464;8.712;2024-03-29T04:46:11;8.20;75.60
25352;DHT22;13304;48.464;8.712;2024-03-29T04:48:37;8.30;75.70
25352;DHT22;13304;48.464;8.712;2024-03-29T04:51:03;8.30;75.70
25352;DHT22;13304;48.464;8.712;2024-03-29T04:53:29;8.30;75.70
25352;DHT22;13304;48.464;8.712;2024-03-29T04:55:55;8.30;75.80
25352;DHT22;13304;48.464;8.712;2024-03-29T04:58:24;8.30;75.70
25352;DHT22;13304;48.464;8.712;2024-03-29T05:00:50;8.30;75.70
25352;DHT22;13304;48.464;8.712;2024-03-29T05:03:19;8.30;75.70
25352;DHT22;13304;48.464;8.712;2024-03-29T05:05:45;8.40;75.80
25352;DHT22;13304;48.464;8.712;2024-03-29T05:08:10;8.40;75.70
25352;DHT22;13304;48.464;8.712;2024-03-29T05:10:36;8.40;75.80
25352;DHT22;13304;48.464;8.712;2024-03-29T05:13:02;8.40;75.70
25352;DHT22;13304;48.464;8.712;2024-03-29T05:15:28;8.40;75.70
25352;DHT22;13304;48.464;8.712;2024-03-29T05:17:54;8.40;75.50
25352;DHT22;13304;48.464;8.712;2024-03-29T05:20:19;8.40;75.40
25352;DHT22;13304;48.464;8.712;2024-03-29T05:22:45;8.30;75.30
25352;DHT22;13304;48.464;8.712;2024-03-29T05:25:10;8.30;75.30
25352;DHT22;13304;48.464;8.712;2024-03-29T05:27:36;8.30;75.30
25352;DHT22;13304;48.464;8.712;2024-03-29T05:30:02;8.30;75.40
25352;DHT22;13304;48.464;8.712;2024-03-29T05:32:28;8.30;75.50
25352;DHT22;13304;48.464;8.712;2024-03-29T05:34:54;8.30;75.60
25352;DHT22;13304;48.464;8.712;2024-03-29T05:37:20;8.30;75.70
25352;DHT22;13304;48.464;8.712;2024-03-29T05:39:45;8.20;75.70
25352;DHT22;13304;48.464;8.712;2024-03-29T05:42:12;8.30;75.80
25352;DHT22;13304;48.464;8.712;2024-03-29T05:44:38;8.30;75.90
25352;DHT22;13304;48.464;8.712;2024-03-29T05:47:03;8.30;76.00
25352;DHT22;13304;48.464;8.712;2024-03-29T05:49:32;8.30;76.00
25352;DHT22;13304;48.464;8.712;2024-03-29T05:51:57;8.30;76.00
25352;DHT22;13304;48.464;8.712;2024-03-29T05:54:23;8.30;76.10
25352;DHT22;13304;48.464;8.712;2024-03-29T05:56:50;8.40;76.20
25352;DHT22;13304;48.464;8.712;2024-03-29T05:59:15;8.40;76.40
25352;DHT22;13304;48.464;8.712;2024-03-29T06:01:41;8.40;76.50
25352;DHT22;13304;48.464;8.712;2024-03-29T06:04:07;8.40;76.60
25352;DHT22;13304;48.464;8.712;2024-03-29T06:06:40;8.50;76.70
25352;DHT22;13304;48.464;8.712;2024-03-29T06:09:05;8.50;76.80
25352;DHT22;13304;48.464;8.712;2024-03-29T06:11:31;8.60;76.90
25352;DHT22;13304;48.464;8.712;2024-03-29T06:13:56;8.60;76.90
25352;DHT22;13304;48.464;8.712;2024-03-29T06:16:25;8.70;77.10
25352;DHT22;13304;48.464;8.712;2024-03-29T06:19:10;8.70;77.20
25352;DHT22;13304;48.464;8.712;2024-03-29T06:21:35;8.80;77.10
25352;DHT22;13304;48.464;8.712;2024-03-29T06:24:08;8.80;77.10
25352;DHT22;13304;48.464;8.712;2024-03-29T06:26:34;8.90;77.10
25352;DHT22;13304;48.464;8.712;2024-03-29T06:29:00;8.90;77.10
25352;DHT22;13304;48.464;8.712;2024-03-29T06:31:25;9.00;77.20
25352;DHT22;13304;48.464;8.712;2024-03-29T06:33:51;9.00;77.20
25352;DHT22;13304;48.464;8.712;2024-03-29T06:36:16;9.10;77.20
25352;DHT22;13304;48.464;8.712;2024-03-29T06:38:42;9.10;77.20
25352;DHT22;13304;48.464;8.712;2024-03-29T06:41:07;9.20;77.10
25352;DHT22;13304;48.464;8.712;2024-03-29T06:43:33;9.20;77.10
25352;DHT22;13304;48.464;8.712;2024-03-29T06:45:59;9.20;77.00
25352;DHT22;13304;48.464;8.712;2024-03-29T06:48:24;9.30;77.00
25352;DHT22;13304;48.464;8.712;2024-03-29T06:50:50;9.30;76.90
25352;DHT22;13304;48.464;8.712;2024-03-29T06:53:16;9.30;76.80
25352;DHT22;13304;48.464;8.712;2024-03-29T06:55:41;9.40;76.80
25352;DHT22;13304;48.464;8.712;2024-03-29T06:58:07;9.40;76.80
25352;DHT22;13304;48.464;8.712;2024-03-29T07:00:32;9.40;77.10
25352;DHT22;13304;48.464;8.712;2024-03-29T07:02:58;9.40;78.00
25352;DHT22;13304;48.464;8.712;2024-03-29T07:05:24;9.50;77.20
25352;DHT22;13304;48.464;8.712;2024-03-29T07:07:49;9.50;77.20
25352;DHT22;13304;48.464;8.712;2024-03-29T07:10:15;9.50;77.10
25352;DHT22;13304;48.464;8.712;2024-03-29T07:12:40;9.60;77.10
25352;DHT22;13304;48.464;8.712;2024-03-29T07:15:06;9.60;77.10
25352;DHT22;13304;48.464;8.712;2024-03-29T07:17:32;9.60;77.10
25352;DHT22;13304;48.464;8.712;2024-03-29T07:19:57;9.60;77.10
25352;DHT22;13304;48.464;8.712;2024-03-29T07:22:22;9.60;77.30
25352;DHT22;13304;48.464;8.712;2024-03-29T07:24:48;9.60;77.70
25352;DHT22;13304;48.464;8.712;2024-03-29T07:27:14;9.60;77.80
25352;DHT22;13304;48.464;8.712;2024-03-29T07:29:42;9.60;77.90
25352;DHT22;13304;48.464;8.712;2024-03-29T07:32:09;9.60;77.70
25352;DHT22;13304;48.464;8.712;2024-03-29T07:34:34;9.70;77.70
25352;DHT22;13304;48.464;8.712;2024-03-29T07:37:00;9.70;77.70
25352;DHT22;13304;48.464;8.712;2024-03-29T07:39:26;9.70;77.50
25352;DHT22;13304;48.464;8.712;2024-03-29T07:41:51;9.70;77.40
25352;DHT22;13304;48.464;8.712;2024-03-29T07:44:17;9.70;77.60
25352;DHT22;13304;48.464;8.712;2024-03-29T07:46:42;9.70;77.40
25352;DHT22;13304;48.464;8.712;2024-03-29T07:49:08;9.70;77.60
25352;DHT22;13304;48.464;8.712;2024-03-29T07:51:33;9.70;78.10
25352;DHT22;13304;48.464;8.712;2024-03-29T07:53:59;9.70;78.60
25352;DHT22;13304;48.464;8.712;2024-03-29T07:56:24;9.70;78.70
25352;DHT22;13304;48.464;8.712;2024-03-29T07:58:51;9.70;78.40
25352;DHT22;13304;48.464;8.712;2024-03-29T08:01:18;9.70;78.30
25352;DHT22;13304;48.464;8.712;2024-03-29T08:03:43;9.70;78.40
25352;DHT22;13304;48.464;8.712;2024-03-29T08:06:09;9.80;78.40
25352;DHT22;13304;48.464;8.712;2024-03-29T08:08:34;9.80;78.60
25352;DHT22;13304;48.464;8.712;2024-03-29T08:11:00;9.80;78.80
25352;DHT22;13304;48.464;8.712;2024-03-29T08:13:26;9.80;78.80
25352;DHT22;13304;48.464;8.712;2024-03-29T08:15:59;9.90;79.00
25352;DHT22;13304;48.464;8.712;2024-03-29T08:18:25;9.90;79.50
25352;DHT22;13304;48.464;8.712;2024-03-29T08:20:50;9.90;79.90
25352;DHT22;13304;48.464;8.712;2024-03-29T08:23:16;9.90;79.40
25352;DHT22;13304;48.464;8.712;2024-03-29T08:25:41;10.00;79.50
25352;DHT22;13304;48.464;8.712;2024-03-29T08:28:07;10.00;79.70
25352;DHT22;13304;48.464;8.712;2024-03-29T08:30:32;10.00;79.90
25352;DHT22;13304;48.464;8.712;2024-03-29T08:33:01;10.10;80.70
25352;DHT22;13304;48.464;8.712;2024-03-29T08:35:31;10.10;80.70
25352;DHT22;13304;48.464;8.712;2024-03-29T08:37:56;10.10;80.70
25352;DHT22;13304;48.464;8.712;2024-03-29T08:40:22;10.20;83.40
25352;DHT22;13304;48.464;8.712;2024-03-29T08:42:47;10.20;83.90
25352;DHT22;13304;48.464;8.712;2024-03-29T08:45:13;10.30;82.40
25352;DHT22;13304;48.464;8.712;2024-03-29T08:47:39;10.30;81.70
25352;DHT22;13304;48.464;8.712;2024-03-29T08:50:05;10.40;82.80
25352;DHT22;13304;48.464;8.712;2024-03-29T08:52:30;10.40;82.10
25352;DHT22;13304;48.464;8.712;2024-03-29T08:54:56;10.40;82.00
25352;DHT22;13304;48.464;8.712;2024-03-29T08:57:21;10.50;81.90
25352;DHT22;13304;48.464;8.712;2024-03-29T08:59:47;10.50;81.90
25352;DHT22;13304;48.464;8.712;2024-03-29T09:02:12;10.60;82.20
25352;DHT22;13304;48.464;8.712;2024-03-29T09:04:38;10.60;83.80
25352;DHT22;13304;48.464;8.712;2024-03-29T09:07:03;10.70;83.40
25352;DHT22;13304;48.464;8.712;2024-03-29T09:09:29;10.70;85.20
25352;DHT22;13304;48.464;8.712;2024-03-29T09:11:55;10.70;84.10
25352;DHT22;13304;48.464;8.712;2024-03-29T09:14:21;10.80;83.90
25352;DHT22;13304;48.464;8.712;2024-03-29T09:16:46;10.80;83.30
25352;DHT22;13304;48.464;8.712;2024-03-29T09:19:13;10.90;84.00
25352;DHT22;13304;48.464;8.712;2024-03-29T09:21:39;10.90;83.80
25352;DHT22;13304;48.464;8.712;2024-03-29T09:24:05;10.90;83.90
25352;DHT22;13304;48.464;8.712;2024-03-29T09:26:31;11.00;83.40
25352;DHT22;13304;48.464;8.712;2024-03-29T09:28:56;11.00;83.20
25352;DHT22;13304;48.464;8.712;2024-03-29T09:31:22;11.10;83.80
25352;DHT22;13304;48.464;8.712;2024-03-29T09:33:47;11.10;83.80
25352;DHT22;13304;48.464;8.712;2024-03-29T09:36:19;11.20;85.40
25352;DHT22;13304;48.464;8.712;2024-03-29T09:38:45;11.30;84.90
25352;DHT22;13304;48.464;8.712;2024-03-29T09:41:13;11.50;84.80
25352;DHT22;13304;48.464;8.712;2024-03-29T09:43:40;11.60;84.60
25352;DHT22;13304;48.464;8.712;2024-03-29T09:46:07;11.70;84.40
25352;DHT22;13304;48.464;8.712;2024-03-29T09:48:33;11.80;84.20
25352;DHT22;13304;48.464;8.712;2024-03-29T09:51:05;11.90;84.90
25352;DHT22;13304;48.464;8.712;2024-03-29T09:53:34;12.00;84.90
25352;DHT22;13304;48.464;8.712;2024-03-29T09:56:00;12.00;84.60
25352;DHT22;13304;48.464;8.712;2024-03-29T09:58:27;12.20;84.70
25352;DHT22;13304;48.464;8.712;2024-03-29T10:00:53;12.20;84.60
25352;DHT22;13304;48.464;8.712;2024-03-29T10:03:20;12.30;84.10
25352;DHT22;13304;48.464;8.712;2024-03-29T10:05:46;12.40;83.70
25352;DHT22;13304;48.464;8.712;2024-03-29T10:08:13;12.50;83.40
25352;DHT22;13304;48.464;8.712;2024-03-29T10:10:40;12.60;83.20
25352;DHT22;13304;48.464;8.712;2024-03-29T10:13:06;12.70;83.40
25352;DHT22;13304;48.464;8.712;2024-03-29T10:15:31;12.80;83.50
25352;DHT22;13304;48.464;8.712;2024-03-29T10:18:02;12.90;83.40
25352;DHT22;13304;48.464;8.712;2024-03-29T10:20:28;13.00;83.30
25352;DHT22;13304;48.464;8.712;2024-03-29T10:22:53;13.10;83.50
25352;DHT22;13304;48.464;8.712;2024-03-29T10:25:21;13.20;83.40
25352;DHT22;13304;48.464;8.712;2024-03-29T10:27:46;13.30;83.40
25352;DHT22;13304;48.464;8.712;2024-03-29T10:30:12;13.30;83.00
25352;DHT22;13304;48.464;8.712;2024-03-29T10:32:42;13.40;82.50
25352;DHT22;13304;48.464;8.712;2024-03-29T10:35:08;13.40;81.80
25352;DHT22;13304;48.464;8.712;2024-03-29T10:37:35;13.50;81.90
25352;DHT22;13304;48.464;8.712;2024-03-29T10:40:10;13.60;82.90
25352;DHT22;13304;48.464;8.712;2024-03-29T10:42:36;13.70;82.70
25352;DHT22;13304;48.464;8.712;2024-03-29T10:45:06;13.70;82.30
25352;DHT22;13304;48.464;8.712;2024-03-29T10:47:31;13.90;82.40
25352;DHT22;13304;48.464;8.712;2024-03-29T10:49:57;13.90;81.50
25352;DHT22;13304;48.464;8.712;2024-03-29T10:52:24;14.00;81.90
25352;DHT22;13304;48.464;8.712;2024-03-29T10:54:50;14.10;81.90
25352;DHT22;13304;48.464;8.712;2024-03-29T10:57:19;14.20;81.90
25352;DHT22;13304;48.464;8.712;2024-03-29T10:59:50;14.20;80.60
25352;DHT22;13304;48.464;8.712;2024-03-29T11:02:30;14.30;79.90
25352;DHT22;13304;48.464;8.712;2024-03-29T11:04:57;14.30;77.60
25352;DHT22;13304;48.464;8.712;2024-03-29T11:07:25;14.40;78.30
25352;DHT22;13304;48.464;8.712;2024-03-29T11:09:52;14.50;78.90
25352;DHT22;13304;48.464;8.712;2024-03-29T11:12:20;14.60;79.40
25352;DHT22;13304;48.464;8.712;2024-03-29T11:14:49;14.70;80.20
25352;DHT22;13304;48.464;8.712;2024-03-29T11:17:15;14.80;80.50
25352;DHT22;13304;48.464;8.712;2024-03-29T11:19:41;14.80;79.10
25352;DHT22;13304;48.464;8.712;2024-03-29T11:22:07;14.90;77.70
25352;DHT22;13304;48.464;8.712;2024-03-29T11:24:33;15.00;76.90
25352;DHT22;13304;48.464;8.712;2024-03-29T11:27:10;15.10;78.90
25352;DHT22;13304;48.464;8.712;2024-03-29T11:29:36;15.10;79.60
25352;DHT22;13304;48.464;8.712;2024-03-29T11:32:06;15.20;80.20
25352;DHT22;13304;48.464;8.712;2024-03-29T11:34:31;15.20;80.70
25352;DHT22;13304;48.464;8.712;2024-03-29T11:37:07;15.30;79.80
25352;DHT22;13304;48.464;8.712;2024-03-29T11:39:33;15.30;79.60
25352;DHT22;13304;48.464;8.712;2024-03-29T11:42:00;15.40;80.40
25352;DHT22;13304;48.464;8.712;2024-03-29T11:44:26;15.40;79.40
25352;DHT22;13304;48.464;8.712;2024-03-29T11:46:51;15.50;79.20
25352;DHT22;13304;48.464;8.712;2024-03-29T11:49:17;15.50;78.20
25352;DHT22;13304;48.464;8.712;2024-03-29T11:51:43;15.50;78.00
25352;DHT22;13304;48.464;8.712;2024-03-29T11:54:08;15.60;79.20
25352;DHT22;13304;48.464;8.712;2024-03-29T11:56:34;15.60;77.30
25352;DHT22;13304;48.464;8.712;2024-03-29T11:59:00;15.70;76.90
25352;DHT22;13304;48.464;8.712;2024-03-29T12:01:28;15.70;75.60
25352;DHT22;13304;48.464;8.712;2024-03-29T12:03:55;15.80;78.80
25352;DHT22;13304;48.464;8.712;2024-03-29T12:06:20;15.80;79.20
25352;DHT22;13304;48.464;8.712;2024-03-29T12:08:46;15.90;79.50
25352;DHT22;13304;48.464;8.712;2024-03-29T12:11:11;15.90;78.70
25352;DHT22;13304;48.464;8.712;2024-03-29T12:13:38;16.00;79.30
25352;DHT22;13304;48.464;8.712;2024-03-29T12:16:06;16.00;79.70
25352;DHT22;13304;48.464;8.712;2024-03-29T12:18:32;16.10;80.10
25352;DHT22;13304;48.464;8.712;2024-03-29T12:20:58;16.10;79.10
25352;DHT22;13304;48.464;8.712;2024-03-29T12:23:24;16.20;79.00
25352;DHT22;13304;48.464;8.712;2024-03-29T12:25:50;16.20;76.40
25352;DHT22;13304;48.464;8.712;2024-03-29T12:28:15;16.30;79.00
25352;DHT22;13304;48.464;8.712;2024-03-29T12:30:42;16.30;79.30
25352;DHT22;13304;48.464;8.712;2024-03-29T12:35:34;16.40;79.50
25352;DHT22;13304;48.464;8.712;2024-03-29T12:38:00;16.50;78.90
25352;DHT22;13304;48.464;8.712;2024-03-29T12:40:27;16.50;77.90
25352;DHT22;13304;48.464;8.712;2024-03-29T12:42:55;16.50;79.00
25352;DHT22;13304;48.464;8.712;2024-03-29T12:45:21;16.50;78.70
25352;DHT22;13304;48.464;8.712;2024-03-29T12:47:47;16.60;79.70
25352;DHT22;13304;48.464;8.712;2024-03-29T12:50:34;16.60;78.30
25352;DHT22;13304;48.464;8.712;2024-03-29T12:53:00;16.70;80.50
25352;DHT22;13304;48.464;8.712;2024-03-29T12:55:26;16.80;78.20
25352;DHT22;13304;48.464;8.712;2024-03-29T12:58:07;16.80;76.90
25352;DHT22;13304;48.464;8.712;2024-03-29T13:00:36;16.90;76.30
25352;DHT22;13304;48.464;8.712;2024-03-29T13:03:02;16.90;76.90
25352;DHT22;13304;48.464;8.712;2024-03-29T13:05:28;16.90;75.70
25352;DHT22;13304;48.464;8.712;2024-03-29T13:07:59;16.90;74.00
25352;DHT22;13304;48.464;8.712;2024-03-29T13:10:25;16.80;75.30
25352;DHT22;13304;48.464;8.712;2024-03-29T13:12:51;16.80;76.20
25352;DHT22;13304;48.464;8.712;2024-03-29T13:15:17;16.80;76.50
25352;DHT22;13304;48.464;8.712;2024-03-29T13:17:43;16.80;76.70
25352;DHT22;13304;48.464;8.712;2024-03-29T13:20:12;16.70;75.70
25352;DHT22;13304;48.464;8.712;2024-03-29T13:22:38;16.60;75.30
25352;DHT22;13304;48.464;8.712;2024-03-29T13:25:04;16.60;75.90
25352;DHT22;13304;48.464;8.712;2024-03-29T13:27:30;16.60;75.90
25352;DHT22;13304;48.464;8.712;2024-03-29T13:29:56;16.60;76.60
25352;DHT22;13304;48.464;8.712;2024-03-29T13:32:21;16.60;76.40
25352;DHT22;13304;48.464;8.712;2024-03-29T13:34:47;16.50;75.10
25352;DHT22;13304;48.464;8.712;2024-03-29T13:37:13;16.50;76.00
25352;DHT22;13304;48.464;8.712;2024-03-29T13:39:38;16.50;76.20
25352;DHT22;13304;48.464;8.712;2024-03-29T13:42:04;16.40;76.00
25352;DHT22;13304;48.464;8.712;2024-03-29T13:44:30;16.50;75.70
25352;DHT22;13304;48.464;8.712;2024-03-29T13:46:55;16.50;75.70
25352;DHT22;13304;48.464;8.712;2024-03-29T13:49:21;16.50;76.30
25352;DHT22;13304;48.464;8.712;2024-03-29T13:51:47;16.60;75.00
25352;DHT22;13304;48.464;8.712;2024-03-29T13:54:12;16.50;73.80
25352;DHT22;13304;48.464;8.712;2024-03-29T13:56:38;16.60;75.30
25352;DHT22;13304;48.464;8.712;2024-03-29T13:59:04;16.60;75.40
25352;DHT22;13304;48.464;8.712;2024-03-29T14:01:29;16.70;75.00
25352;DHT22;13304;48.464;8.712;2024-03-29T14:03:55;16.70;73.70
25352;DHT22;13304;48.464;8.712;2024-03-29T14:06:21;16.70;74.40
25352;DHT22;13304;48.464;8.712;2024-03-29T14:08:46;16.70;72.70
25352;DHT22;13304;48.464;8.712;2024-03-29T14:11:12;16.70;72.40
25352;DHT22;13304;48.464;8.712;2024-03-29T14:13:39;16.80;72.00
25352;DHT22;13304;48.464;8.712;2024-03-29T14:16:05;16.80;72.10
25352;DHT22;13304;48.464;8.712;2024-03-29T14:18:30;16.80;72.90
25352;DHT22;13304;48.464;8.712;2024-03-29T14:20:56;16.90;72.70
25352;DHT22;13304;48.464;8.712;2024-03-29T14:23:22;16.90;73.70
25352;DHT22;13304;48.464;8.712;2024-03-29T14:25:50;16.90;72.50
25352;DHT22;13304;48.464;8.712;2024-03-29T14:28:16;16.90;72.70
25352;DHT22;13304;48.464;8.712;2024-03-29T14:30:41;17.00;71.30
25352;DHT22;13304;48.464;8.712;2024-03-29T14:33:07;17.00;71.80
25352;DHT22;13304;48.464;8.712;2024-03-29T14:35:36;17.10;70.60
25352;DHT22;13304;48.464;8.712;2024-03-29T14:38:01;17.10;71.00
25352;DHT22;13304;48.464;8.712;2024-03-29T14:40:27;17.10;69.70
25352;DHT22;13304;48.464;8.712;2024-03-29T14:42:53;17.10;69.80
25352;DHT22;13304;48.464;8.712;2024-03-29T14:45:27;17.10;66.80
25352;DHT22;13304;48.464;8.712;2024-03-29T14:47:53;17.20;69.50
25352;DHT22;13304;48.464;8.712;2024-03-29T14:50:18;17.20;67.40
25352;DHT22;13304;48.464;8.712;2024-03-29T14:52:44;17.20;66.00
25352;DHT22;13304;48.464;8.712;2024-03-29T14:55:09;17.20;68.60
25352;DHT22;13304;48.464;8.712;2024-03-29T14:57:35;17.20;63.90
25352;DHT22;13304;48.464;8.712;2024-03-29T15:00:00;17.20;65.60
25352;DHT22;13304;48.464;8.712;2024-03-29T15:02:26;17.20;65.50
25352;DHT22;13304;48.464;8.712;2024-03-29T15:04:52;17.30;66.10
25352;DHT22;13304;48.464;8.712;2024-03-29T15:07:18;17.20;64.60
25352;DHT22;13304;48.464;8.712;2024-03-29T15:09:49;17.20;65.30
25352;DHT22;13304;48.464;8.712;2024-03-29T15:12:14;17.30;65.30
25352;DHT22;13304;48.464;8.712;2024-03-29T15:14:40;17.30;67.50
25352;DHT22;13304;48.464;8.712;2024-03-29T15:17:05;17.30;68.00
25352;DHT22;13304;48.464;8.712;2024-03-29T15:19:32;17.30;66.00
25352;DHT22;13304;48.464;8.712;2024-03-29T15:21:58;17.30;66.80
25352;DHT22;13304;48.464;8.712;2024-03-29T15:24:24;17.30;67.20
25352;DHT22;13304;48.464;8.712;2024-03-29T15:26:50;17.30;66.00
25352;DHT22;13304;48.464;8.712;2024-03-29T15:29:18;17.40;67.30
25352;DHT22;13304;48.464;8.712;2024-03-29T15:31:44;17.40;66.30
25352;DHT22;13304;48.464;8.712;2024-03-29T15:34:10;17.40;67.80
25352;DHT22;13304;48.464;8.712;2024-03-29T15:36:35;17.50;67.50